Terminal Aerodrome Forecast
Issued by NWS

Home | Current Version | Previous Version | Text Only | Print | Product List | Glossary On
Versions: 1 2 3 4 5 6 7 8 9 10 11 12 13 14 15 16 17 18 19 20 21
000
FTUS43 KSGF 301721
TAFBBG
TAF
KBBG 301721Z 3018/3118 32004KT P6SM SCT040 OVC200
     FM310100 00000KT P6SM VCTS SCT250CB
     FM310300 00000KT P6SM SCT250 PROB30 3109/3115 4SM TSRA
      BKN250CB=

USA.gov is the U.S. government's official web portal to all federal, state and local government web resources and services.